Time;durP1;ratioP1;P1;durP2;ratioP2;P2;SDS_P1;SDS_P2;PMS_P1;PMS_P2;Temp;Humidity;BMP_temperature;BMP_pressure;BME280_temperature;BME280_humidity;BME280_pressure;Samples;Min_cycle;Max_cycle;Signal;HPM_P1;HPM_P2
2023/08/24 00:01:28;;;;;;;4.15;3.40;;;;;;;;;;4997267;28;20258;-87
2023/08/24 00:03:55;;;;;;;6.25;4.63;;;;;;;;;;4991621;28;20215;-87
2023/08/24 00:06:22;;;;;;;6.53;4.35;;;;;;;;;;4990109;28;20223;-87
2023/08/24 00:08:49;;;;;;;5.18;4.40;;;;;;;;;;5012797;28;20235;-87
2023/08/24 00:11:16;;;;;;;6.28;4.38;;;;;;;;;;4993356;28;20223;-88
2023/08/24 00:13:48;;;;;;;11.40;5.18;;;;;;;;;;4993539;28;20208;-87
2023/08/24 00:16:15;;;;;;;6.13;4.53;;;;;;;;;;4992482;28;20236;-87
2023/08/24 00:18:44;;;;;;;6.18;4.30;;;;;;;;;;5008082;28;20219;-87
2023/08/24 00:21:11;;;;;;;5.55;4.70;;;;;;;;;;5012285;28;20289;-87
2023/08/24 00:23:38;;;;;;;5.55;4.18;;;;;;;;;;4998973;28;20570;-87
2023/08/24 00:26:06;;;;;;;5.63;4.90;;;;;;;;;;5001799;28;20278;-88
2023/08/24 00:28:33;;;;;;;5.00;4.50;;;;;;;;;;5012580;28;20599;-87
2023/08/24 00:31:00;;;;;;;5.63;4.88;;;;;;;;;;4995401;28;20236;-86
2023/08/24 00:33:27;;;;;;;5.38;4.88;;;;;;;;;;4993237;28;20202;-86
2023/08/24 00:36:00;;;;;;;8.35;5.18;;;;;;;;;;4991506;28;20239;-87
2023/08/24 00:38:27;;;;;;;5.05;4.60;;;;;;;;;;4990107;28;20254;-86
2023/08/24 00:40:54;;;;;;;5.95;4.90;;;;;;;;;;4995953;28;20702;-87
2023/08/24 00:43:23;;;;;;;4.47;4.18;;;;;;;;;;4992893;28;20607;-87
2023/08/24 00:45:51;;;;;;;5.32;4.82;;;;;;;;;;4999643;28;20227;-86
2023/08/24 00:48:18;;;;;;;5.25;4.85;;;;;;;;;;5012363;28;20234;-86
2023/08/24 00:50:45;;;;;;;5.70;5.20;;;;;;;;;;4992913;28;20232;-87
2023/08/24 00:53:14;;;;;;;5.90;4.85;;;;;;;;;;4994804;28;20212;-86
2023/08/24 00:55:41;;;;;;;5.05;4.55;;;;;;;;;;4997741;28;20259;-86
2023/08/24 00:58:09;;;;;;;7.78;5.25;;;;;;;;;;4992667;28;20228;-87
2023/08/24 01:00:37;;;;;;;5.30;4.90;;;;;;;;;;4993326;28;20270;-86
2023/08/24 01:03:04;;;;;;;6.07;5.20;;;;;;;;;;4995171;28;20204;-87
2023/08/24 01:05:31;;;;;;;9.32;4.97;;;;;;;;;;4991003;28;20237;-86
2023/08/24 01:07:58;;;;;;;5.75;5.22;;;;;;;;;;5019458;22;20227;-82
2023/08/24 01:10:30;;;;;;;7.20;5.28;;;;;;;;;;5028214;28;20230;-82
2023/08/24 01:13:02;;;;;;;8.00;5.45;;;;;;;;;;5020454;28;20211;-82
2023/08/24 01:15:32;;;;;;;5.85;5.25;;;;;;;;;;5012726;28;20231;-82
2023/08/24 01:18:02;;;;;;;5.97;5.05;;;;;;;;;;4998497;28;20740;-82
2023/08/24 01:20:30;;;;;;;6.22;5.63;;;;;;;;;;5009115;28;20226;-82
2023/08/24 01:22:58;;;;;;;6.18;5.60;;;;;;;;;;5008624;28;20211;-82
2023/08/24 01:25:34;;;;;;;5.65;5.07;;;;;;;;;;5000676;28;20238;-82
2023/08/24 01:28:03;;;;;;;5.90;5.28;;;;;;;;;;5000884;28;20254;-82
2023/08/24 01:30:30;;;;;;;5.88;4.95;;;;;;;;;;5016251;28;20230;-82
2023/08/24 01:32:57;;;;;;;7.10;4.63;;;;;;;;;;5023579;28;20744;-82
2023/08/24 01:35:24;;;;;;;6.15;5.05;;;;;;;;;;5011740;28;20242;-82
2023/08/24 01:37:51;;;;;;;5.05;4.63;;;;;;;;;;5018556;28;20230;-82
2023/08/24 01:40:20;;;;;;;4.88;4.47;;;;;;;;;;5012295;28;20430;-82
2023/08/24 01:42:50;;;;;;;5.43;4.80;;;;;;;;;;5011951;28;20229;-82
2023/08/24 01:45:19;;;;;;;5.50;5.00;;;;;;;;;;5006765;28;20224;-82
2023/08/24 01:47:47;;;;;;;5.90;4.78;;;;;;;;;;5003844;28;20233;-82
2023/08/24 01:50:15;;;;;;;8.15;4.57;;;;;;;;;;5005736;28;20228;-82
2023/08/24 01:52:43;;;;;;;7.72;4.85;;;;;;;;;;5007335;28;20572;-82
2023/08/24 01:55:10;;;;;;;6.47;4.68;;;;;;;;;;5024209;28;20234;-83
2023/08/24 01:57:37;;;;;;;6.93;4.90;;;;;;;;;;5020847;28;20741;-82
2023/08/24 02:00:06;;;;;;;5.47;4.93;;;;;;;;;;5006237;28;20579;-82
2023/08/24 02:02:36;;;;;;;6.47;5.32;;;;;;;;;;5012540;28;20688;-82
2023/08/24 02:05:03;;;;;;;9.45;5.80;;;;;;;;;;5017817;28;20203;-84
2023/08/24 02:07:30;;;;;;;7.00;5.82;;;;;;;;;;5023451;28;20227;-83
2023/08/24 02:09:57;;;;;;;6.25;5.70;;;;;;;;;;5023549;28;20207;-82
2023/08/24 02:12:24;;;;;;;6.47;5.85;;;;;;;;;;5017670;28;20226;-82
2023/08/24 02:14:51;;;;;;;6.38;5.78;;;;;;;;;;5025097;28;20210;-82
2023/08/24 02:17:18;;;;;;;8.13;6.20;;;;;;;;;;5015330;28;20231;-82
2023/08/24 02:19:47;;;;;;;7.47;5.78;;;;;;;;;;5023478;28;20222;-82
2023/08/24 02:22:14;;;;;;;6.53;5.88;;;;;;;;;;5006068;28;20705;-82
2023/08/24 02:24:41;;;;;;;7.28;5.97;;;;;;;;;;5014888;28;20226;-82
2023/08/24 02:27:08;;;;;;;6.90;6.20;;;;;;;;;;5023075;28;20231;-82
2023/08/24 02:29:35;;;;;;;7.05;6.13;;;;;;;;;;5026440;28;20203;-82
2023/08/24 02:32:02;;;;;;;8.68;6.50;;;;;;;;;;5034040;28;20230;-82
2023/08/24 02:34:30;;;;;;;8.18;5.65;;;;;;;;;;5007173;28;20208;-82
2023/08/24 02:36:58;;;;;;;10.85;6.15;;;;;;;;;;5004357;28;20319;-82
2023/08/24 02:39:25;;;;;;;8.10;5.60;;;;;;;;;;5030665;28;20234;-82
2023/08/24 02:41:53;;;;;;;6.63;6.03;;;;;;;;;;5010090;28;20223;-82
2023/08/24 02:44:20;;;;;;;8.13;6.10;;;;;;;;;;5010495;28;20262;-82
2023/08/24 02:46:47;;;;;;;6.32;5.78;;;;;;;;;;5013943;28;20223;-82
2023/08/24 02:49:14;;;;;;;7.20;6.53;;;;;;;;;;5013194;28;20239;-82
2023/08/24 02:51:41;;;;;;;7.90;7.10;;;;;;;;;;5006017;28;20238;-82
2023/08/24 02:54:10;;;;;;;7.72;7.00;;;;;;;;;;5014385;28;20257;-82
2023/08/24 02:56:37;;;;;;;7.93;7.10;;;;;;;;;;5013888;28;20732;-82
2023/08/24 02:59:04;;;;;;;7.45;6.75;;;;;;;;;;5013457;28;20262;-82
2023/08/24 03:01:31;;;;;;;10.70;7.65;;;;;;;;;;5005914;28;20708;-82
2023/08/24 03:03:58;;;;;;;8.52;7.72;;;;;;;;;;5014496;28;20203;-82
2023/08/24 03:06:25;;;;;;;7.82;7.05;;;;;;;;;;5021663;28;20234;-82
2023/08/24 03:08:52;;;;;;;6.75;6.15;;;;;;;;;;5022141;28;20233;-82
2023/08/24 03:11:21;;;;;;;7.07;6.38;;;;;;;;;;5013059;28;20236;-82
2023/08/24 03:13:48;;;;;;;9.68;6.88;;;;;;;;;;5024227;28;20278;-82
2023/08/24 03:16:15;;;;;;;9.27;6.70;;;;;;;;;;5012765;28;20243;-82
2023/08/24 03:18:42;;;;;;;7.25;6.63;;;;;;;;;;5022389;28;20235;-82
2023/08/24 03:21:09;;;;;;;8.27;7.15;;;;;;;;;;5021798;28;20235;-82
2023/08/24 03:23:36;;;;;;;8.63;7.40;;;;;;;;;;5002333;28;20693;-82
2023/08/24 03:26:04;;;;;;;7.70;7.00;;;;;;;;;;5009540;28;20223;-82
2023/08/24 03:28:32;;;;;;;8.68;6.88;;;;;;;;;;5013829;28;20215;-82
2023/08/24 03:30:59;;;;;;;9.35;7.57;;;;;;;;;;5006240;28;20224;-82
2023/08/24 03:33:27;;;;;;;7.45;6.70;;;;;;;;;;5015069;28;20218;-82
2023/08/24 03:35:54;;;;;;;8.63;7.30;;;;;;;;;;5010516;28;20584;-82
2023/08/24 03:38:21;;;;;;;9.25;8.25;;;;;;;;;;5011866;28;20812;-82
2023/08/24 03:40:48;;;;;;;9.23;7.57;;;;;;;;;;5007019;28;20230;-81
2023/08/24 03:43:16;;;;;;;8.13;7.22;;;;;;;;;;5012972;28;20211;-82
2023/08/24 03:45:44;;;;;;;8.07;6.72;;;;;;;;;;5020974;28;20231;-81
2023/08/24 03:48:11;;;;;;;9.48;6.75;;;;;;;;;;5013083;28;20705;-81
2023/08/24 03:50:38;;;;;;;6.93;6.32;;;;;;;;;;5008634;28;20702;-81
2023/08/24 03:53:05;;;;;;;8.70;7.40;;;;;;;;;;5012427;28;20288;-82
2023/08/24 03:55:33;;;;;;;7.90;7.20;;;;;;;;;;5010749;28;20231;-81
2023/08/24 03:58:00;;;;;;;9.85;6.93;;;;;;;;;;5021210;28;20235;-81
2023/08/24 04:00:27;;;;;;;8.25;7.40;;;;;;;;;;5020762;28;20235;-81
2023/08/24 04:02:55;;;;;;;8.00;7.30;;;;;;;;;;5013251;28;20211;-81
2023/08/24 04:05:22;;;;;;;10.43;7.43;;;;;;;;;;5011793;28;20705;-82
2023/08/24 04:07:49;;;;;;;9.32;7.88;;;;;;;;;;5020388;28;20231;-81
2023/08/24 04:10:16;;;;;;;8.75;7.30;;;;;;;;;;5020061;28;20273;-82
2023/08/24 04:12:43;;;;;;;8.32;7.53;;;;;;;;;;5012777;28;20211;-82
2023/08/24 04:15:11;;;;;;;8.83;7.93;;;;;;;;;;5004086;28;20318;-82
2023/08/24 04:17:38;;;;;;;8.17;6.93;;;;;;;;;;5008386;28;20278;-82
2023/08/24 04:20:08;;;;;;;9.13;8.23;;;;;;;;;;5000570;28;20203;-83
2023/08/24 04:22:35;;;;;;;9.45;8.20;;;;;;;;;;5010880;28;20207;-83
2023/08/24 04:25:02;;;;;;;13.18;9.65;;;;;;;;;;5012151;28;20211;-83
2023/08/24 04:27:29;;;;;;;9.60;8.60;;;;;;;;;;5020431;28;20246;-82
2023/08/24 04:29:57;;;;;;;10.40;8.98;;;;;;;;;;4997760;28;20211;-82
2023/08/24 04:32:24;;;;;;;12.20;9.25;;;;;;;;;;5002390;28;20714;-84
2023/08/24 04:34:51;;;;;;;9.75;8.75;;;;;;;;;;5012541;28;20206;-83
2023/08/24 04:37:19;;;;;;;8.95;8.05;;;;;;;;;;5005098;28;20231;-83
2023/08/24 04:39:47;;;;;;;10.32;9.13;;;;;;;;;;5004405;28;20207;-82
2023/08/24 04:42:14;;;;;;;10.10;9.07;;;;;;;;;;5028030;28;20704;-82
2023/08/24 04:44:42;;;;;;;8.93;8.15;;;;;;;;;;5023217;28;20210;-83
2023/08/24 04:47:09;;;;;;;9.73;8.65;;;;;;;;;;5005252;28;20258;-83
2023/08/24 04:49:37;;;;;;;9.57;8.18;;;;;;;;;;5012109;28;20713;-83
2023/08/24 04:52:04;;;;;;;10.98;9.32;;;;;;;;;;5011480;28;20227;-83
2023/08/24 04:54:34;;;;;;;10.38;7.93;;;;;;;;;;5020375;28;20215;-82
2023/08/24 04:57:01;;;;;;;9.13;8.23;;;;;;;;;;5019711;28;20301;-82
2023/08/24 04:59:28;;;;;;;9.45;7.80;;;;;;;;;;5020228;28;20234;-83
2023/08/24 05:01:56;;;;;;;8.52;7.43;;;;;;;;;;5011559;28;20223;-83
2023/08/24 05:04:23;;;;;;;10.38;7.95;;;;;;;;;;5013358;28;20904;-83
2023/08/24 05:06:50;;;;;;;8.95;8.15;;;;;;;;;;5017445;28;20596;-83
2023/08/24 05:09:17;;;;;;;9.85;8.95;;;;;;;;;;5020064;28;20239;-83
2023/08/24 05:11:45;;;;;;;10.23;8.23;;;;;;;;;;4999244;28;20238;-85
2023/08/24 05:14:13;;;;;;;8.55;7.75;;;;;;;;;;5000866;28;20576;-83
2023/08/24 05:16:40;;;;;;;10.38;9.25;;;;;;;;;;5010520;28;20251;-83
2023/08/24 05:19:07;;;;;;;11.63;9.18;;;;;;;;;;5003338;28;20234;-83
2023/08/24 05:21:35;;;;;;;13.77;8.52;;;;;;;;;;5011149;28;20230;-84
2023/08/24 05:24:04;;;;;;;11.32;9.20;;;;;;;;;;5012526;28;20208;-83
2023/08/24 05:26:31;;;;;;;9.18;8.27;;;;;;;;;;5003886;28;20236;-83
2023/08/24 05:28:59;;;;;;;10.45;9.27;;;;;;;;;;5016072;28;20233;-83
2023/08/24 05:31:26;;;;;;;9.13;8.23;;;;;;;;;;5017718;28;20321;-82
2023/08/24 05:33:53;;;;;;;9.93;8.90;;;;;;;;;;5028128;28;20214;-85
2023/08/24 05:36:20;;;;;;;10.30;9.15;;;;;;;;;;5032485;28;20244;-83
2023/08/24 05:38:47;;;;;;;11.82;8.50;;;;;;;;;;5032397;28;20222;-82
2023/08/24 05:41:14;;;;;;;8.77;8.02;;;;;;;;;;5028528;28;20284;-83
2023/08/24 05:43:42;;;;;;;11.52;8.50;;;;;;;;;;5011362;28;20211;-83
2023/08/24 05:46:10;;;;;;;9.82;8.82;;;;;;;;;;5016331;28;20242;-84
2023/08/24 05:48:37;;;;;;;8.57;7.78;;;;;;;;;;5020748;28;20262;-83
2023/08/24 05:51:06;;;;;;;8.83;8.00;;;;;;;;;;5019762;28;20227;-83
2023/08/24 05:53:33;;;;;;;10.48;8.30;;;;;;;;;;5031768;28;20216;-83
2023/08/24 05:56:00;;;;;;;9.77;8.80;;;;;;;;;;5017169;28;20230;-84
2023/08/24 05:58:27;;;;;;;11.52;8.55;;;;;;;;;;5022036;28;20235;-83
2023/08/24 06:00:58;;;;;;;9.88;8.88;;;;;;;;;;5018770;28;20238;-83
2023/08/24 06:03:26;;;;;;;11.02;8.57;;;;;;;;;;5024536;28;20689;-83
2023/08/24 06:05:53;;;;;;;11.15;9.40;;;;;;;;;;5022909;28;20230;-84
2023/08/24 06:08:20;;;;;;;10.70;9.18;;;;;;;;;;5013879;28;20235;-86
2023/08/24 06:10:47;;;;;;;13.73;9.35;;;;;;;;;;5022073;28;20229;-84
2023/08/24 06:13:14;;;;;;;9.95;9.05;;;;;;;;;;5022918;28;20207;-83
2023/08/24 06:15:41;;;;;;;10.73;9.38;;;;;;;;;;5018586;28;20231;-83
2023/08/24 06:18:09;;;;;;;10.82;9.00;;;;;;;;;;5027125;28;20227;-84
2023/08/24 06:20:37;;;;;;;9.90;8.90;;;;;;;;;;5020220;28;20239;-84
2023/08/24 06:23:04;;;;;;;9.85;8.82;;;;;;;;;;5027348;28;20207;-84
2023/08/24 06:25:32;;;;;;;9.20;8.30;;;;;;;;;;5011220;28;20645;-84
2023/08/24 06:27:59;;;;;;;9.65;8.48;;;;;;;;;;5024766;28;20242;-84
2023/08/24 06:30:27;;;;;;;10.43;9.38;;;;;;;;;;5012738;28;20234;-83
2023/08/24 06:32:54;;;;;;;9.48;8.50;;;;;;;;;;5024093;28;20199;-84
2023/08/24 06:35:21;;;;;;;9.40;8.55;;;;;;;;;;5023521;28;20254;-84
2023/08/24 06:37:49;;;;;;;10.05;8.52;;;;;;;;;;5026274;28;20226;-84
2023/08/24 06:40:17;;;;;;;10.82;8.30;;;;;;;;;;5017307;28;20203;-84
2023/08/24 06:42:44;;;;;;;9.27;8.30;;;;;;;;;;5013773;28;20222;-84
2023/08/24 06:45:11;;;;;;;9.30;8.40;;;;;;;;;;5021042;28;20226;-85
2023/08/24 06:47:38;;;;;;;10.63;8.68;;;;;;;;;;5033415;28;20266;-84
2023/08/24 06:50:06;;;;;;;11.88;8.68;;;;;;;;;;5033244;28;20203;-84
2023/08/24 06:52:33;;;;;;;9.40;8.45;;;;;;;;;;5033356;28;20613;-83
2023/08/24 06:55:02;;;;;;;8.43;7.63;;;;;;;;;;5028179;28;20203;-84
2023/08/24 06:57:29;;;;;;;8.60;7.70;;;;;;;;;;5003843;28;20302;-85
2023/08/24 06:59:56;;;;;;;9.63;7.85;;;;;;;;;;5008027;28;20238;-86
2023/08/24 07:02:23;;;;;;;9.40;7.47;;;;;;;;;;5004672;28;20235;-83
2023/08/24 07:04:50;;;;;;;7.35;6.65;;;;;;;;;;5003136;28;20211;-83
2023/08/24 07:07:17;;;;;;;7.78;7.07;;;;;;;;;;5002157;28;20228;-85
2023/08/24 07:09:44;;;;;;;8.07;6.43;;;;;;;;;;5002603;28;20212;-84
2023/08/24 07:12:13;;;;;;;9.77;6.47;;;;;;;;;;5002619;28;20239;-84
2023/08/24 07:14:40;;;;;;;8.27;7.47;;;;;;;;;;5010642;28;20296;-84
2023/08/24 07:17:07;;;;;;;8.68;6.80;;;;;;;;;;5001831;28;20232;-85
2023/08/24 07:19:34;;;;;;;9.82;7.03;;;;;;;;;;5003958;28;20231;-84
2023/08/24 07:22:02;;;;;;;8.77;6.97;;;;;;;;;;5006254;28;20713;-85
2023/08/24 07:24:29;;;;;;;7.38;6.65;;;;;;;;;;5004545;28;20208;-85
2023/08/24 07:26:57;;;;;;;8.30;7.07;;;;;;;;;;5002191;28;20228;-85
2023/08/24 07:29:25;;;;;;;9.20;6.88;;;;;;;;;;5002860;28;20228;-85
2023/08/24 07:31:52;;;;;;;7.75;7.07;;;;;;;;;;5005792;28;20231;-85
2023/08/24 07:34:19;;;;;;;7.93;7.22;;;;;;;;;;5006029;28;20207;-85
2023/08/24 07:36:48;;;;;;;8.65;7.40;;;;;;;;;;5001871;28;20231;-85
2023/08/24 07:39:15;;;;;;;8.32;7.57;;;;;;;;;;5002348;28;20586;-85
2023/08/24 07:41:42;;;;;;;10.25;7.18;;;;;;;;;;5004783;28;20237;-85
2023/08/24 07:44:09;;;;;;;6.82;6.15;;;;;;;;;;5005469;28;20211;-85
2023/08/24 07:46:38;;;;;;;7.65;6.25;;;;;;;;;;5002023;28;20235;-85
2023/08/24 07:49:05;;;;;;;9.55;6.53;;;;;;;;;;4999922;28;20727;-85
2023/08/24 07:51:34;;;;;;;7.13;6.43;;;;;;;;;;5003576;28;20614;-83
2023/08/24 07:54:01;;;;;;;7.43;6.28;;;;;;;;;;5001771;28;20732;-82
2023/08/24 07:56:28;;;;;;;8.15;6.82;;;;;;;;;;5001856;28;20251;-82
2023/08/24 07:58:55;;;;;;;7.80;6.20;;;;;;;;;;5004790;28;20599;-82
2023/08/24 08:01:22;;;;;;;8.63;6.00;;;;;;;;;;5004348;28;20255;-82
2023/08/24 08:03:51;;;;;;;6.20;5.60;;;;;;;;;;5014585;28;20214;-82
2023/08/24 08:06:18;;;;;;;6.10;5.50;;;;;;;;;;5000969;28;20235;-82
2023/08/24 08:08:46;;;;;;;7.45;5.90;;;;;;;;;;5003890;28;20606;-82
2023/08/24 08:11:13;;;;;;;7.65;5.93;;;;;;;;;;5004128;28;20263;-82
2023/08/24 08:13:40;;;;;;;6.57;5.88;;;;;;;;;;5004280;28;20207;-82
2023/08/24 08:16:08;;;;;;;7.95;5.95;;;;;;;;;;5003865;28;20234;-82
2023/08/24 08:18:35;;;;;;;6.72;5.95;;;;;;;;;;5002270;28;20712;-82
2023/08/24 08:21:10;;;;;;;7.50;6.63;;;;;;;;;;5000823;28;20717;-82
2023/08/24 08:23:37;;;;;;;6.78;6.10;;;;;;;;;;5002821;28;20218;-82
2023/08/24 08:26:04;;;;;;;7.00;6.10;;;;;;;;;;5003894;28;20238;-85
2023/08/24 08:28:33;;;;;;;7.57;5.68;;;;;;;;;;5003231;28;20227;-85
2023/08/24 08:44:59;;;;;;;5.85;4.63;;;;;;;;;;5102727;22;1226179;-81
2023/08/24 08:47:26;;;;;;;5.07;4.18;;;;;;;;;;5038903;28;20256;-80
2023/08/24 08:49:54;;;;;;;4.72;4.32;;;;;;;;;;5035275;28;20226;-81
2023/08/24 08:52:21;;;;;;;5.50;4.95;;;;;;;;;;5016593;28;20223;-81
2023/08/24 08:54:48;;;;;;;5.35;4.95;;;;;;;;;;5019195;28;20222;-81
2023/08/24 08:57:16;;;;;;;7.35;4.53;;;;;;;;;;5019257;28;20225;-81
2023/08/24 08:59:43;;;;;;;6.07;4.57;;;;;;;;;;5011348;28;20242;-81
2023/08/24 09:02:14;;;;;;;4.35;3.95;;;;;;;;;;5013936;28;20242;-81
2023/08/24 09:04:42;;;;;;;6.50;4.07;;;;;;;;;;5018158;28;20737;-80
2023/08/24 09:07:11;;;;;;;5.15;3.88;;;;;;;;;;5018821;28;20226;-81
2023/08/24 09:09:39;;;;;;;5.90;4.25;;;;;;;;;;5017586;28;20301;-80
2023/08/24 09:12:07;;;;;;;4.25;3.95;;;;;;;;;;5014685;28;20246;-81
2023/08/24 09:14:34;;;;;;;3.90;3.55;;;;;;;;;;5017017;28;20321;-81
2023/08/24 09:17:02;;;;;;;5.55;4.57;;;;;;;;;;5018680;28;20230;-81
2023/08/24 09:19:31;;;;;;;5.38;4.25;;;;;;;;;;5018729;28;20202;-81
2023/08/24 09:21:59;;;;;;;5.57;4.68;;;;;;;;;;5015268;28;20661;-81
2023/08/24 09:24:31;;;;;;;5.57;5.05;;;;;;;;;;5015740;28;20725;-81
2023/08/24 09:26:59;;;;;;;5.55;4.25;;;;;;;;;;5011433;28;20328;-80
2023/08/24 09:29:26;;;;;;;5.68;4.13;;;;;;;;;;5019213;28;20271;-81
2023/08/24 09:31:53;;;;;;;6.22;4.72;;;;;;;;;;5014904;28;20227;-81
2023/08/24 09:34:21;;;;;;;4.35;3.95;;;;;;;;;;5015522;28;20274;-80
2023/08/24 09:36:49;;;;;;;5.53;4.10;;;;;;;;;;5014803;28;20231;-81
2023/08/24 09:39:19;;;;;;;4.25;3.85;;;;;;;;;;5015696;28;20215;-81
2023/08/24 09:41:47;;;;;;;5.00;4.05;;;;;;;;;;5016960;28;20761;-81
2023/08/24 09:44:15;;;;;;;4.25;3.90;;;;;;;;;;5004658;28;20210;-81
2023/08/24 09:46:44;;;;;;;4.18;3.83;;;;;;;;;;5051222;28;20365;-81
2023/08/24 09:49:12;;;;;;;4.47;4.05;;;;;;;;;;5072951;28;20251;-80
2023/08/24 09:51:40;;;;;;;3.67;3.38;;;;;;;;;;5072295;28;20316;-81
2023/08/24 09:54:09;;;;;;;4.47;3.85;;;;;;;;;;5072875;28;20201;-81
2023/08/24 09:56:37;;;;;;;3.88;3.55;;;;;;;;;;5071676;28;20252;-81
2023/08/24 09:59:09;;;;;;;4.18;3.33;;;;;;;;;;5072599;28;20197;-81
2023/08/24 10:01:37;;;;;;;5.03;3.30;;;;;;;;;;5071297;28;20233;-80
2023/08/24 10:04:06;;;;;;;3.78;3.05;;;;;;;;;;5072394;28;20209;-81
2023/08/24 10:06:38;;;;;;;3.92;3.20;;;;;;;;;;5071663;28;20237;-80
2023/08/24 10:09:08;;;;;;;5.97;2.92;;;;;;;;;;5072161;28;20706;-81
2023/08/24 10:11:41;;;;;;;3.97;2.95;;;;;;;;;;5071172;28;20703;-81
2023/08/24 10:14:12;;;;;;;4.93;2.72;;;;;;;;;;5071945;28;20550;-80
2023/08/24 10:16:39;;;;;;;4.53;2.60;;;;;;;;;;5071726;28;20232;-80
2023/08/24 10:19:06;;;;;;;3.55;2.50;;;;;;;;;;5072574;28;20228;-82
2023/08/24 10:21:33;;;;;;;3.67;2.30;;;;;;;;;;5072021;28;20236;-81
2023/08/24 10:24:03;;;;;;;4.05;2.35;;;;;;;;;;5072357;28;20201;-81
2023/08/24 10:26:30;;;;;;;2.60;2.40;;;;;;;;;;5071918;28;20224;-81
2023/08/24 10:28:59;;;;;;;2.33;2.10;;;;;;;;;;5072418;28;20201;-81
2023/08/24 10:31:27;;;;;;;2.72;2.10;;;;;;;;;;5071909;28;20229;-81
2023/08/24 10:33:55;;;;;;;5.70;2.30;;;;;;;;;;5072055;28;20205;-81
2023/08/24 10:36:23;;;;;;;3.72;2.08;;;;;;;;;;5071479;28;20236;-81
2023/08/24 10:38:51;;;;;;;2.78;1.88;;;;;;;;;;5071981;28;20592;-81
2023/08/24 10:41:18;;;;;;;3.90;2.38;;;;;;;;;;5071648;28;20244;-81
2023/08/24 10:43:50;;;;;;;4.90;2.60;;;;;;;;;;5071912;28;20209;-81
2023/08/24 10:46:19;;;;;;;3.00;2.33;;;;;;;;;;5071420;28;20622;-82
2023/08/24 10:48:59;;;;;;;3.75;2.20;;;;;;;;;;5071822;28;20205;-82
2023/08/24 10:51:27;;;;;;;2.33;2.13;;;;;;;;;;5071328;28;20282;-82
2023/08/24 10:53:57;;;;;;;2.28;2.08;;;;;;;;;;5070797;28;20205;-81
2023/08/24 10:56:31;;;;;;;4.90;2.63;;;;;;;;;;5070859;28;20243;-82
2023/08/24 10:59:11;;;;;;;2.55;2.35;;;;;;;;;;5063635;28;20626;-82
2023/08/24 11:01:41;;;;;;;3.05;2.20;;;;;;;;;;5071102;28;20225;-82
2023/08/24 11:04:12;;;;;;;2.50;2.30;;;;;;;;;;5071565;28;20212;-82
2023/08/24 11:06:52;;;;;;;4.07;2.25;;;;;;;;;;5070790;28;20655;-82
2023/08/24 11:09:20;;;;;;;3.00;2.42;;;;;;;;;;5071597;28;20662;-82
2023/08/24 11:11:57;;;;;;;3.83;2.60;;;;;;;;;;5070522;28;20883;-82
2023/08/24 11:14:26;;;;;;;2.95;2.08;;;;;;;;;;5071197;28;20598;-82
2023/08/24 11:16:54;;;;;;;5.38;2.53;;;;;;;;;;5070406;28;20345;-82
2023/08/24 11:19:22;;;;;;;3.30;2.08;;;;;;;;;;5071422;28;20205;-82
2023/08/24 11:21:49;;;;;;;2.30;2.10;;;;;;;;;;5070839;28;20314;-83
2023/08/24 11:24:17;;;;;;;4.80;2.53;;;;;;;;;;5071310;28;20209;-83
2023/08/24 11:26:45;;;;;;;4.53;2.38;;;;;;;;;;5070552;28;20714;-82
2023/08/24 11:29:15;;;;;;;2.47;2.15;;;;;;;;;;5071547;28;20213;-82
2023/08/24 11:31:43;;;;;;;2.60;2.40;;;;;;;;;;5070859;28;20225;-83
2023/08/24 11:34:12;;;;;;;2.58;2.20;;;;;;;;;;5071312;28;20201;-82
2023/08/24 11:36:45;;;;;;;3.78;1.88;;;;;;;;;;5070383;28;20229;-82
2023/08/24 11:39:19;;;;;;;4.25;1.92;;;;;;;;;;5071323;28;20247;-83
2023/08/24 11:41:48;;;;;;;4.40;2.10;;;;;;;;;;5070083;28;20231;-82
2023/08/24 11:44:15;;;;;;;2.40;2.20;;;;;;;;;;5071171;28;20233;-82
2023/08/24 11:46:42;;;;;;;3.03;2.10;;;;;;;;;;5070168;28;20237;-83
2023/08/24 11:49:11;;;;;;;2.90;1.95;;;;;;;;;;5070860;28;20693;-82
2023/08/24 11:51:38;;;;;;;2.55;2.30;;;;;;;;;;5070275;28;20236;-81
2023/08/24 11:54:05;;;;;;;3.22;2.20;;;;;;;;;;5070861;28;20216;-82
2023/08/24 11:56:33;;;;;;;2.78;2.30;;;;;;;;;;5070295;28;20256;-83
2023/08/24 11:59:00;;;;;;;2.00;1.90;;;;;;;;;;5054484;28;20204;-82
2023/08/24 12:01:31;;;;;;;2.40;2.15;;;;;;;;;;5070226;28;20221;-83
2023/08/24 12:03:59;;;;;;;3.63;2.10;;;;;;;;;;5070555;28;20258;-82
2023/08/24 12:06:29;;;;;;;6.63;2.35;;;;;;;;;;5069881;28;20710;-83
2023/08/24 12:08:56;;;;;;;4.57;2.20;;;;;;;;;;5070748;28;20217;-82
2023/08/24 12:11:25;;;;;;;2.40;2.20;;;;;;;;;;5070222;28;20741;-82
2023/08/24 12:13:53;;;;;;;2.58;2.00;;;;;;;;;;5070836;28;20216;-83
2023/08/24 12:16:20;;;;;;;2.40;2.20;;;;;;;;;;5070309;28;20251;-82
2023/08/24 12:18:48;;;;;;;4.15;2.00;;;;;;;;;;5070408;28;20675;-82
2023/08/24 12:21:16;;;;;;;2.95;2.05;;;;;;;;;;5067006;28;20227;-83
2023/08/24 12:23:44;;;;;;;3.13;2.17;;;;;;;;;;5070452;28;20209;-84
2023/08/24 12:26:19;;;;;;;4.20;1.98;;;;;;;;;;5062072;28;20237;-83
2023/08/24 12:28:50;;;;;;;2.40;2.20;;;;;;;;;;5068293;28;20670;-83
2023/08/24 12:31:18;;;;;;;3.55;2.30;;;;;;;;;;5070211;28;20240;-83
2023/08/24 12:33:46;;;;;;;2.38;2.00;;;;;;;;;;5070892;28;20224;-86
2023/08/24 12:36:13;;;;;;;3.05;2.15;;;;;;;;;;5070832;28;20781;-86
2023/08/24 12:38:42;;;;;;;6.05;2.72;;;;;;;;;;5070037;28;20667;-87
2023/08/24 12:41:13;;;;;;;3.25;2.25;;;;;;;;;;5071154;28;20331;-87
2023/08/24 12:43:40;;;;;;;6.75;2.10;;;;;;;;;;5071006;28;20209;-86
2023/08/24 12:46:07;;;;;;;2.45;2.25;;;;;;;;;;5070037;28;20233;-86
2023/08/24 12:48:37;;;;;;;1.92;1.83;;;;;;;;;;5071512;28;20206;-87
2023/08/24 12:51:05;;;;;;;2.80;2.10;;;;;;;;;;5062267;28;20605;-87
2023/08/24 12:53:32;;;;;;;2.55;2.22;;;;;;;;;;5070712;28;20224;-87
2023/08/24 12:55:59;;;;;;;3.00;2.45;;;;;;;;;;5070147;28;20240;-87
2023/08/24 12:58:28;;;;;;;1.92;1.83;;;;;;;;;;5070696;28;20227;-87
2023/08/24 13:00:55;;;;;;;2.92;2.28;;;;;;;;;;5070578;28;20675;-87
2023/08/24 13:03:23;;;;;;;4.00;2.28;;;;;;;;;;5071492;28;20217;-87
2023/08/24 13:05:50;;;;;;;3.42;2.05;;;;;;;;;;5070390;28;20249;-87
2023/08/24 13:08:17;;;;;;;2.33;2.13;;;;;;;;;;5071799;28;20212;-87
2023/08/24 13:10:44;;;;;;;2.58;2.05;;;;;;;;;;5071168;28;20308;-87
2023/08/24 13:13:12;;;;;;;3.25;2.30;;;;;;;;;;5071353;28;20654;-86
2023/08/24 13:15:41;;;;;;;2.75;2.20;;;;;;;;;;5070594;28;20240;-87
2023/08/24 13:18:08;;;;;;;3.67;2.55;;;;;;;;;;5072004;28;20607;-86
2023/08/24 13:20:35;;;;;;;3.28;2.17;;;;;;;;;;5073727;28;20236;-86
2023/08/24 13:23:02;;;;;;;2.25;2.03;;;;;;;;;;5073953;28;20198;-87
2023/08/24 13:25:29;;;;;;;4.25;2.10;;;;;;;;;;5073665;28;20695;-86
2023/08/24 13:27:59;;;;;;;2.35;2.15;;;;;;;;;;5074229;28;20667;-86
2023/08/24 13:30:27;;;;;;;4.20;2.30;;;;;;;;;;5069414;28;20290;-86
2023/08/24 13:32:55;;;;;;;5.60;2.35;;;;;;;;;;5073599;28;20727;-84
2023/08/24 13:35:23;;;;;;;2.47;2.33;;;;;;;;;;5073183;28;20268;-84
2023/08/24 13:37:51;;;;;;;2.20;2.00;;;;;;;;;;5073254;28;20678;-84
2023/08/24 13:40:18;;;;;;;4.38;2.67;;;;;;;;;;5073401;28;20252;-86
2023/08/24 13:42:46;;;;;;;2.60;2.22;;;;;;;;;;5074202;28;20627;-86
2023/08/24 13:45:13;;;;;;;3.42;2.25;;;;;;;;;;5074227;28;20256;-86
2023/08/24 13:47:41;;;;;;;2.40;2.20;;;;;;;;;;5074434;28;20212;-86
2023/08/24 13:50:10;;;;;;;2.25;2.10;;;;;;;;;;5075159;28;20209;-86
2023/08/24 13:52:37;;;;;;;6.93;2.30;;;;;;;;;;5075530;28;20240;-86
2023/08/24 13:55:05;;;;;;;2.83;2.03;;;;;;;;;;5075463;28;20307;-87
2023/08/24 13:57:32;;;;;;;2.35;2.15;;;;;;;;;;5075152;28;20307;-86
2023/08/24 14:00:02;;;;;;;6.18;2.10;;;;;;;;;;5075137;28;20214;-86
2023/08/24 14:02:30;;;;;;;4.18;2.15;;;;;;;;;;5074563;28;20278;-86
2023/08/24 14:04:57;;;;;;;2.92;2.20;;;;;;;;;;5073949;28;20308;-86
2023/08/24 14:07:26;;;;;;;3.53;3.10;;;;;;;;;;5072761;28;20707;-86
2023/08/24 14:09:53;;;;;;;4.55;2.35;;;;;;;;;;5073419;28;20213;-87
2023/08/24 14:12:20;;;;;;;5.10;2.60;;;;;;;;;;5072892;28;20240;-86
2023/08/24 14:14:47;;;;;;;2.88;2.58;;;;;;;;;;5073421;28;20232;-86
2023/08/24 14:17:14;;;;;;;4.88;2.63;;;;;;;;;;5072848;28;20229;-85
2023/08/24 14:19:41;;;;;;;4.28;2.45;;;;;;;;;;5073259;28;20717;-86
2023/08/24 14:22:08;;;;;;;2.63;2.42;;;;;;;;;;5072919;28;20240;-86
2023/08/24 14:24:37;;;;;;;3.38;2.33;;;;;;;;;;5072979;28;20710;-86
2023/08/24 14:27:04;;;;;;;2.55;2.35;;;;;;;;;;5072374;28;20221;-85
2023/08/24 14:29:32;;;;;;;4.57;2.25;;;;;;;;;;5072650;28;20225;-85
2023/08/24 14:31:59;;;;;;;6.00;2.50;;;;;;;;;;5072155;28;20248;-85
2023/08/24 14:34:26;;;;;;;4.25;2.90;;;;;;;;;;5072652;28;20221;-85
2023/08/24 14:36:53;;;;;;;4.93;2.60;;;;;;;;;;5071803;28;20225;-85
2023/08/24 14:39:21;;;;;;;2.30;2.10;;;;;;;;;;5072590;28;20659;-84
2023/08/24 14:41:49;;;;;;;3.28;2.50;;;;;;;;;;5071918;28;20234;-85
2023/08/24 14:44:16;;;;;;;2.40;2.20;;;;;;;;;;5072605;28;20280;-85
2023/08/24 14:46:44;;;;;;;5.55;2.70;;;;;;;;;;5056041;22;20230;-85
2023/08/24 14:49:11;;;;;;;3.08;2.70;;;;;;;;;;5034410;28;20290;-85
2023/08/24 14:51:38;;;;;;;6.28;2.88;;;;;;;;;;5033645;28;20673;-85
2023/08/24 14:54:07;;;;;;;3.55;2.40;;;;;;;;;;5033272;28;21128;-84
2023/08/24 14:56:34;;;;;;;4.63;2.30;;;;;;;;;;5029533;28;20311;-86
2023/08/24 14:59:05;;;;;;;3.53;2.30;;;;;;;;;;5030241;28;20215;-82